sensor_id;sensor_type;location;lat;lon;timestamp;temperature;humidity
7530;DHT22;3806;52.270;10.544;2023-12-22T00:01:17;5.70;99.90
7530;DHT22;3806;52.270;10.544;2023-12-22T00:03:43;5.60;99.90
7530;DHT22;3806;52.270;10.544;2023-12-22T00:06:11;5.60;99.90
7530;DHT22;3806;52.270;10.544;2023-12-22T00:08:37;5.40;99.90
7530;DHT22;3806;52.270;10.544;2023-12-22T00:11:02;5.40;99.90
7530;DHT22;3806;52.270;10.544;2023-12-22T00:13:28;5.30;99.90
7530;DHT22;3806;52.270;10.544;2023-12-22T00:15:54;5.30;99.90
7530;DHT22;3806;52.270;10.544;2023-12-22T00:18:19;5.30;99.90
7530;DHT22;3806;52.270;10.544;2023-12-22T00:20:45;5.30;99.90
7530;DHT22;3806;52.270;10.544;2023-12-22T00:23:10;5.30;99.90
7530;DHT22;3806;52.270;10.544;2023-12-22T00:25:36;5.30;99.90
7530;DHT22;3806;52.270;10.544;2023-12-22T00:28:01;5.40;99.90
7530;DHT22;3806;52.270;10.544;2023-12-22T00:30:27;5.40;99.90
7530;DHT22;3806;52.270;10.544;2023-12-22T00:32:52;5.50;99.90
7530;DHT22;3806;52.270;10.544;2023-12-22T00:35:18;5.50;99.90
7530;DHT22;3806;52.270;10.544;2023-12-22T00:37:43;5.50;99.90
7530;DHT22;3806;52.270;10.544;2023-12-22T00:40:09;5.50;99.90
7530;DHT22;3806;52.270;10.544;2023-12-22T00:42:35;5.50;99.90
7530;DHT22;3806;52.270;10.544;2023-12-22T00:45:01;5.50;99.90
7530;DHT22;3806;52.270;10.544;2023-12-22T00:47:26;5.60;99.90
7530;DHT22;3806;52.270;10.544;2023-12-22T00:49:52;5.60;99.90
7530;DHT22;3806;52.270;10.544;2023-12-22T00:52:17;5.60;99.90
7530;DHT22;3806;52.270;10.544;2023-12-22T00:54:43;5.60;99.90
7530;DHT22;3806;52.270;10.544;2023-12-22T00:57:08;5.70;99.90
7530;DHT22;3806;52.270;10.544;2023-12-22T00:59:34;5.70;99.90
7530;DHT22;3806;52.270;10.544;2023-12-22T01:01:59;5.70;99.90
7530;DHT22;3806;52.270;10.544;2023-12-22T01:04:25;5.70;99.90
7530;DHT22;3806;52.270;10.544;2023-12-22T01:06:50;5.70;99.90
7530;DHT22;3806;52.270;10.544;2023-12-22T01:09:16;5.70;99.90
7530;DHT22;3806;52.270;10.544;2023-12-22T01:11:41;5.70;99.90
7530;DHT22;3806;52.270;10.544;2023-12-22T01:14:07;5.70;99.90
7530;DHT22;3806;52.270;10.544;2023-12-22T01:16:33;5.70;99.90
7530;DHT22;3806;52.270;10.544;2023-12-22T01:18:58;5.70;99.90
7530;DHT22;3806;52.270;10.544;2023-12-22T01:21:24;5.70;99.90
7530;DHT22;3806;52.270;10.544;2023-12-22T01:23:49;5.70;99.90
7530;DHT22;3806;52.270;10.544;2023-12-22T01:26:15;5.70;99.90
7530;DHT22;3806;52.270;10.544;2023-12-22T01:28:40;5.70;99.90
7530;DHT22;3806;52.270;10.544;2023-12-22T01:31:06;5.70;99.90
7530;DHT22;3806;52.270;10.544;2023-12-22T01:33:31;5.70;99.90
7530;DHT22;3806;52.270;10.544;2023-12-22T01:35:56;5.70;99.90
7530;DHT22;3806;52.270;10.544;2023-12-22T01:38:22;5.80;99.90
7530;DHT22;3806;52.270;10.544;2023-12-22T01:40:47;5.90;99.90
7530;DHT22;3806;52.270;10.544;2023-12-22T01:43:13;5.90;99.90
7530;DHT22;3806;52.270;10.544;2023-12-22T01:45:40;5.80;99.90
7530;DHT22;3806;52.270;10.544;2023-12-22T01:48:09;5.80;99.90
7530;DHT22;3806;52.270;10.544;2023-12-22T01:50:35;5.80;99.90
7530;DHT22;3806;52.270;10.544;2023-12-22T01:53:02;5.90;99.90
7530;DHT22;3806;52.270;10.544;2023-12-22T01:55:29;5.90;99.90
7530;DHT22;3806;52.270;10.544;2023-12-22T01:57:55;5.90;99.90
7530;DHT22;3806;52.270;10.544;2023-12-22T02:00:21;5.90;99.90
7530;DHT22;3806;52.270;10.544;2023-12-22T02:02:47;5.90;99.90
7530;DHT22;3806;52.270;10.544;2023-12-22T02:05:13;5.90;99.90
7530;DHT22;3806;52.270;10.544;2023-12-22T02:07:41;5.90;99.90
7530;DHT22;3806;52.270;10.544;2023-12-22T02:10:09;5.90;99.90
7530;DHT22;3806;52.270;10.544;2023-12-22T02:12:37;5.90;99.90
7530;DHT22;3806;52.270;10.544;2023-12-22T02:15:03;5.90;99.90
7530;DHT22;3806;52.270;10.544;2023-12-22T02:20:02;5.90;99.90
7530;DHT22;3806;52.270;10.544;2023-12-22T02:22:29;5.90;99.90
7530;DHT22;3806;52.270;10.544;2023-12-22T02:24:54;5.90;99.90
7530;DHT22;3806;52.270;10.544;2023-12-22T02:27:50;5.90;99.90
7530;DHT22;3806;52.270;10.544;2023-12-22T02:33:04;5.90;99.90
7530;DHT22;3806;52.270;10.544;2023-12-22T02:35:33;5.90;99.90
7530;DHT22;3806;52.270;10.544;2023-12-22T02:38:02;5.90;99.90
7530;DHT22;3806;52.270;10.544;2023-12-22T02:40:28;5.90;99.90
7530;DHT22;3806;52.270;10.544;2023-12-22T02:42:54;5.90;99.90
7530;DHT22;3806;52.270;10.544;2023-12-22T02:45:20;5.80;99.90
7530;DHT22;3806;52.270;10.544;2023-12-22T02:47:46;5.70;99.90
7530;DHT22;3806;52.270;10.544;2023-12-22T02:50:13;5.70;99.90
7530;DHT22;3806;52.270;10.544;2023-12-22T02:52:39;5.70;99.90
7530;DHT22;3806;52.270;10.544;2023-12-22T02:55:05;5.70;99.90
7530;DHT22;3806;52.270;10.544;2023-12-22T02:57:30;5.60;99.90
7530;DHT22;3806;52.270;10.544;2023-12-22T02:59:56;5.60;99.90
7530;DHT22;3806;52.270;10.544;2023-12-22T03:02:22;5.60;99.90
7530;DHT22;3806;52.270;10.544;2023-12-22T03:04:48;5.60;99.90
7530;DHT22;3806;52.270;10.544;2023-12-22T03:07:14;5.60;99.90
7530;DHT22;3806;52.270;10.544;2023-12-22T03:09:39;5.60;99.90
7530;DHT22;3806;52.270;10.544;2023-12-22T03:12:08;5.60;99.90
7530;DHT22;3806;52.270;10.544;2023-12-22T03:14:34;5.60;99.90
7530;DHT22;3806;52.270;10.544;2023-12-22T03:17:00;5.60;99.90
7530;DHT22;3806;52.270;10.544;2023-12-22T03:19:26;5.60;99.90
7530;DHT22;3806;52.270;10.544;2023-12-22T03:21:52;5.60;99.90
7530;DHT22;3806;52.270;10.544;2023-12-22T03:24:17;5.60;99.90
7530;DHT22;3806;52.270;10.544;2023-12-22T03:26:50;5.70;99.90
7530;DHT22;3806;52.270;10.544;2023-12-22T03:29:16;5.70;99.90
7530;DHT22;3806;52.270;10.544;2023-12-22T03:31:43;5.60;99.90
7530;DHT22;3806;52.270;10.544;2023-12-22T03:34:08;5.50;99.90
7530;DHT22;3806;52.270;10.544;2023-12-22T03:36:34;5.50;99.90
7530;DHT22;3806;52.270;10.544;2023-12-22T03:38:59;5.30;99.90
7530;DHT22;3806;52.270;10.544;2023-12-22T03:41:25;5.30;99.90
7530;DHT22;3806;52.270;10.544;2023-12-22T03:43:50;5.30;99.90
7530;DHT22;3806;52.270;10.544;2023-12-22T03:46:16;5.10;99.90
7530;DHT22;3806;52.270;10.544;2023-12-22T03:48:42;5.10;99.90
7530;DHT22;3806;52.270;10.544;2023-12-22T03:51:07;5.10;99.90
7530;DHT22;3806;52.270;10.544;2023-12-22T03:53:33;5.10;99.90
7530;DHT22;3806;52.270;10.544;2023-12-22T03:55:58;5.20;99.90
7530;DHT22;3806;52.270;10.544;2023-12-22T03:58:24;5.20;99.90
7530;DHT22;3806;52.270;10.544;2023-12-22T04:00:51;5.20;99.90
7530;DHT22;3806;52.270;10.544;2023-12-22T04:03:16;5.20;99.90
7530;DHT22;3806;52.270;10.544;2023-12-22T04:05:42;5.20;99.90
7530;DHT22;3806;52.270;10.544;2023-12-22T04:08:08;5.10;99.90
7530;DHT22;3806;52.270;10.544;2023-12-22T04:10:33;5.00;99.90
7530;DHT22;3806;52.270;10.544;2023-12-22T04:12:59;5.00;99.90
7530;DHT22;3806;52.270;10.544;2023-12-22T04:15:24;4.90;99.90
7530;DHT22;3806;52.270;10.544;2023-12-22T04:17:50;4.80;99.90
7530;DHT22;3806;52.270;10.544;2023-12-22T04:20:15;4.90;99.90
7530;DHT22;3806;52.270;10.544;2023-12-22T04:22:41;4.90;99.90
7530;DHT22;3806;52.270;10.544;2023-12-22T04:25:07;4.80;99.90
7530;DHT22;3806;52.270;10.544;2023-12-22T04:27:34;4.90;99.90
7530;DHT22;3806;52.270;10.544;2023-12-22T04:29:59;4.90;99.90
7530;DHT22;3806;52.270;10.544;2023-12-22T04:32:25;4.90;99.90
7530;DHT22;3806;52.270;10.544;2023-12-22T04:34:50;4.90;99.90
7530;DHT22;3806;52.270;10.544;2023-12-22T04:37:16;4.90;99.90
7530;DHT22;3806;52.270;10.544;2023-12-22T04:39:41;4.80;99.90
7530;DHT22;3806;52.270;10.544;2023-12-22T04:42:07;4.90;99.90
7530;DHT22;3806;52.270;10.544;2023-12-22T04:44:32;4.90;99.90
7530;DHT22;3806;52.270;10.544;2023-12-22T04:46:58;4.90;99.90
7530;DHT22;3806;52.270;10.544;2023-12-22T04:49:23;5.00;99.90
7530;DHT22;3806;52.270;10.544;2023-12-22T04:51:49;5.10;99.90
7530;DHT22;3806;52.270;10.544;2023-12-22T04:54:14;5.20;99.90
7530;DHT22;3806;52.270;10.544;2023-12-22T04:56:40;5.20;99.90
7530;DHT22;3806;52.270;10.544;2023-12-22T04:59:05;5.30;99.90
7530;DHT22;3806;52.270;10.544;2023-12-22T05:01:31;5.30;99.90
7530;DHT22;3806;52.270;10.544;2023-12-22T05:03:56;5.30;99.90
7530;DHT22;3806;52.270;10.544;2023-12-22T05:06:22;5.20;99.90
7530;DHT22;3806;52.270;10.544;2023-12-22T05:08:47;5.20;99.90
7530;DHT22;3806;52.270;10.544;2023-12-22T05:11:13;5.20;99.90
7530;DHT22;3806;52.270;10.544;2023-12-22T05:13:38;5.10;99.90
7530;DHT22;3806;52.270;10.544;2023-12-22T05:16:05;5.00;99.90
7530;DHT22;3806;52.270;10.544;2023-12-22T05:18:31;5.00;99.90
7530;DHT22;3806;52.270;10.544;2023-12-22T05:20:56;5.00;99.90
7530;DHT22;3806;52.270;10.544;2023-12-22T05:23:22;4.90;99.90
7530;DHT22;3806;52.270;10.544;2023-12-22T05:25:48;4.90;99.90
7530;DHT22;3806;52.270;10.544;2023-12-22T05:28:13;4.90;99.90
7530;DHT22;3806;52.270;10.544;2023-12-22T05:30:39;4.90;99.90
7530;DHT22;3806;52.270;10.544;2023-12-22T05:33:04;4.90;99.90
7530;DHT22;3806;52.270;10.544;2023-12-22T05:35:29;4.90;99.90
7530;DHT22;3806;52.270;10.544;2023-12-22T05:37:55;5.00;99.90
7530;DHT22;3806;52.270;10.544;2023-12-22T05:40:20;5.00;99.90
7530;DHT22;3806;52.270;10.544;2023-12-22T05:42:46;5.00;99.90
7530;DHT22;3806;52.270;10.544;2023-12-22T05:45:13;5.00;99.90
7530;DHT22;3806;52.270;10.544;2023-12-22T05:47:39;5.00;99.90
7530;DHT22;3806;52.270;10.544;2023-12-22T05:50:05;5.00;99.90
7530;DHT22;3806;52.270;10.544;2023-12-22T05:52:31;5.10;99.90
7530;DHT22;3806;52.270;10.544;2023-12-22T05:54:56;5.10;99.90
7530;DHT22;3806;52.270;10.544;2023-12-22T05:57:22;5.10;99.90
7530;DHT22;3806;52.270;10.544;2023-12-22T05:59:50;5.10;99.90
7530;DHT22;3806;52.270;10.544;2023-12-22T06:02:15;5.10;99.90
7530;DHT22;3806;52.270;10.544;2023-12-22T06:04:41;5.10;99.90
7530;DHT22;3806;52.270;10.544;2023-12-22T06:07:06;5.10;99.90
7530;DHT22;3806;52.270;10.544;2023-12-22T06:09:32;5.10;99.90
7530;DHT22;3806;52.270;10.544;2023-12-22T06:11:57;5.20;99.90
7530;DHT22;3806;52.270;10.544;2023-12-22T06:14:23;5.30;99.90
7530;DHT22;3806;52.270;10.544;2023-12-22T06:16:49;5.30;99.90
7530;DHT22;3806;52.270;10.544;2023-12-22T06:19:16;5.20;99.90
7530;DHT22;3806;52.270;10.544;2023-12-22T06:21:42;5.20;99.90
7530;DHT22;3806;52.270;10.544;2023-12-22T06:24:07;5.10;99.90
7530;DHT22;3806;52.270;10.544;2023-12-22T06:26:33;5.10;99.90
7530;DHT22;3806;52.270;10.544;2023-12-22T06:28:59;5.20;99.90
7530;DHT22;3806;52.270;10.544;2023-12-22T06:31:25;5.20;99.90
7530;DHT22;3806;52.270;10.544;2023-12-22T06:33:51;5.20;99.90
7530;DHT22;3806;52.270;10.544;2023-12-22T06:36:24;5.20;99.90
7530;DHT22;3806;52.270;10.544;2023-12-22T06:38:51;5.20;99.90
7530;DHT22;3806;52.270;10.544;2023-12-22T06:41:24;5.20;99.90
7530;DHT22;3806;52.270;10.544;2023-12-22T06:43:51;5.30;99.90
7530;DHT22;3806;52.270;10.544;2023-12-22T06:46:20;5.30;99.90
7530;DHT22;3806;52.270;10.544;2023-12-22T06:48:47;5.30;99.90
7530;DHT22;3806;52.270;10.544;2023-12-22T06:51:27;5.30;99.90
7530;DHT22;3806;52.270;10.544;2023-12-22T06:53:53;5.40;99.90
7530;DHT22;3806;52.270;10.544;2023-12-22T06:56:25;5.40;99.90
7530;DHT22;3806;52.270;10.544;2023-12-22T06:58:52;5.40;99.90
7530;DHT22;3806;52.270;10.544;2023-12-22T07:01:22;5.40;99.90
7530;DHT22;3806;52.270;10.544;2023-12-22T07:03:49;5.40;99.90
7530;DHT22;3806;52.270;10.544;2023-12-22T07:06:19;5.30;99.90
7530;DHT22;3806;52.270;10.544;2023-12-22T07:11:22;5.20;99.90
7530;DHT22;3806;52.270;10.544;2023-12-22T07:13:47;5.20;99.90
7530;DHT22;3806;52.270;10.544;2023-12-22T07:16:13;5.30;99.90
7530;DHT22;3806;52.270;10.544;2023-12-22T07:18:40;5.20;99.90
7530;DHT22;3806;52.270;10.544;2023-12-22T07:21:05;5.30;99.90
7530;DHT22;3806;52.270;10.544;2023-12-22T07:23:31;5.20;99.90
7530;DHT22;3806;52.270;10.544;2023-12-22T07:25:56;5.20;99.90
7530;DHT22;3806;52.270;10.544;2023-12-22T07:28:22;5.20;99.90
7530;DHT22;3806;52.270;10.544;2023-12-22T07:30:47;5.20;99.90
7530;DHT22;3806;52.270;10.544;2023-12-22T07:33:13;5.30;99.90
7530;DHT22;3806;52.270;10.544;2023-12-22T07:35:38;5.20;99.90
7530;DHT22;3806;52.270;10.544;2023-12-22T07:38:04;5.10;99.90
7530;DHT22;3806;52.270;10.544;2023-12-22T07:40:29;5.20;99.90
7530;DHT22;3806;52.270;10.544;2023-12-22T07:42:56;5.20;99.90
7530;DHT22;3806;52.270;10.544;2023-12-22T07:45:21;5.20;99.90
7530;DHT22;3806;52.270;10.544;2023-12-22T07:47:47;5.20;99.90
7530;DHT22;3806;52.270;10.544;2023-12-22T07:50:12;5.20;99.90
7530;DHT22;3806;52.270;10.544;2023-12-22T07:52:38;5.30;99.90
7530;DHT22;3806;52.270;10.544;2023-12-22T07:55:08;5.40;99.90
7530;DHT22;3806;52.270;10.544;2023-12-22T07:57:37;5.40;99.90
7530;DHT22;3806;52.270;10.544;2023-12-22T08:00:04;5.40;99.90
7530;DHT22;3806;52.270;10.544;2023-12-22T08:02:29;5.40;99.90
7530;DHT22;3806;52.270;10.544;2023-12-22T08:04:55;5.40;99.90
7530;DHT22;3806;52.270;10.544;2023-12-22T08:07:21;5.40;99.90
7530;DHT22;3806;52.270;10.544;2023-12-22T08:09:46;5.40;99.90
7530;DHT22;3806;52.270;10.544;2023-12-22T08:12:12;5.30;99.90
7530;DHT22;3806;52.270;10.544;2023-12-22T08:14:37;5.30;99.90
7530;DHT22;3806;52.270;10.544;2023-12-22T08:17:03;5.30;99.90
7530;DHT22;3806;52.270;10.544;2023-12-22T08:19:28;5.40;99.90
7530;DHT22;3806;52.270;10.544;2023-12-22T08:21:54;5.50;99.90
7530;DHT22;3806;52.270;10.544;2023-12-22T08:24:21;5.50;99.90
7530;DHT22;3806;52.270;10.544;2023-12-22T08:26:46;5.50;99.90
7530;DHT22;3806;52.270;10.544;2023-12-22T08:29:12;5.40;99.90
7530;DHT22;3806;52.270;10.544;2023-12-22T08:31:37;5.40;99.90
7530;DHT22;3806;52.270;10.544;2023-12-22T08:34:03;5.30;99.90
7530;DHT22;3806;52.270;10.544;2023-12-22T08:36:28;5.20;99.90
7530;DHT22;3806;52.270;10.544;2023-12-22T08:38:54;5.00;99.90
7530;DHT22;3806;52.270;10.544;2023-12-22T08:41:20;5.10;99.90
7530;DHT22;3806;52.270;10.544;2023-12-22T08:43:45;5.50;99.90
7530;DHT22;3806;52.270;10.544;2023-12-22T08:46:11;5.80;99.90
7530;DHT22;3806;52.270;10.544;2023-12-22T08:48:37;6.10;99.90
7530;DHT22;3806;52.270;10.544;2023-12-22T08:51:02;6.10;99.90
7530;DHT22;3806;52.270;10.544;2023-12-22T08:53:29;5.90;99.90
7530;DHT22;3806;52.270;10.544;2023-12-22T08:55:59;5.70;99.90
7530;DHT22;3806;52.270;10.544;2023-12-22T08:58:26;5.60;99.90
7530;DHT22;3806;52.270;10.544;2023-12-22T09:00:52;5.50;99.90
7530;DHT22;3806;52.270;10.544;2023-12-22T09:03:17;5.50;99.90
7530;DHT22;3806;52.270;10.544;2023-12-22T09:05:43;5.50;99.90
7530;DHT22;3806;52.270;10.544;2023-12-22T09:08:08;5.50;99.90
7530;DHT22;3806;52.270;10.544;2023-12-22T09:10:33;5.40;99.90
7530;DHT22;3806;52.270;10.544;2023-12-22T09:12:59;5.50;99.90
7530;DHT22;3806;52.270;10.544;2023-12-22T09:15:25;5.70;99.90
7530;DHT22;3806;52.270;10.544;2023-12-22T09:17:52;6.00;99.90
7530;DHT22;3806;52.270;10.544;2023-12-22T09:20:18;6.40;99.90
7530;DHT22;3806;52.270;10.544;2023-12-22T09:22:44;6.70;99.90
7530;DHT22;3806;52.270;10.544;2023-12-22T09:25:09;7.00;99.90
7530;DHT22;3806;52.270;10.544;2023-12-22T09:27:35;7.10;99.90
7530;DHT22;3806;52.270;10.544;2023-12-22T09:30:00;7.30;99.90
7530;DHT22;3806;52.270;10.544;2023-12-22T09:32:26;7.40;99.90
7530;DHT22;3806;52.270;10.544;2023-12-22T09:34:52;7.50;99.90
7530;DHT22;3806;52.270;10.544;2023-12-22T09:37:20;7.80;99.90
7530;DHT22;3806;52.270;10.544;2023-12-22T09:39:45;7.90;99.90
7530;DHT22;3806;52.270;10.544;2023-12-22T09:42:11;7.90;99.90
7530;DHT22;3806;52.270;10.544;2023-12-22T09:44:39;7.80;99.90
7530;DHT22;3806;52.270;10.544;2023-12-22T09:47:05;7.60;99.90
7530;DHT22;3806;52.270;10.544;2023-12-22T09:49:33;7.50;99.90
7530;DHT22;3806;52.270;10.544;2023-12-22T09:52:01;7.50;99.90
7530;DHT22;3806;52.270;10.544;2023-12-22T09:54:29;7.40;99.90
7530;DHT22;3806;52.270;10.544;2023-12-22T09:56:55;7.40;99.90
7530;DHT22;3806;52.270;10.544;2023-12-22T09:59:22;7.30;99.90
7530;DHT22;3806;52.270;10.544;2023-12-22T10:01:49;7.20;99.90
7530;DHT22;3806;52.270;10.544;2023-12-22T10:04:16;7.00;99.90
7530;DHT22;3806;52.270;10.544;2023-12-22T10:06:42;6.80;99.90
7530;DHT22;3806;52.270;10.544;2023-12-22T10:09:09;6.60;99.90
7530;DHT22;3806;52.270;10.544;2023-12-22T10:11:37;6.50;99.90
7530;DHT22;3806;52.270;10.544;2023-12-22T10:14:03;6.40;99.90
7530;DHT22;3806;52.270;10.544;2023-12-22T10:16:30;6.40;99.90
7530;DHT22;3806;52.270;10.544;2023-12-22T10:18:55;6.40;99.90
7530;DHT22;3806;52.270;10.544;2023-12-22T10:21:21;6.40;99.90
7530;DHT22;3806;52.270;10.544;2023-12-22T10:23:47;6.40;99.90
7530;DHT22;3806;52.270;10.544;2023-12-22T10:26:12;6.50;99.90
7530;DHT22;3806;52.270;10.544;2023-12-22T10:28:38;6.60;99.90
7530;DHT22;3806;52.270;10.544;2023-12-22T10:31:03;6.70;99.90
7530;DHT22;3806;52.270;10.544;2023-12-22T10:33:32;6.80;99.90
7530;DHT22;3806;52.270;10.544;2023-12-22T10:35:59;6.80;99.90
7530;DHT22;3806;52.270;10.544;2023-12-22T10:38:34;6.80;99.90
7530;DHT22;3806;52.270;10.544;2023-12-22T10:41:03;6.80;99.90
7530;DHT22;3806;52.270;10.544;2023-12-22T10:43:30;6.80;99.90
7530;DHT22;3806;52.270;10.544;2023-12-22T10:45:55;6.80;99.90
7530;DHT22;3806;52.270;10.544;2023-12-22T10:48:24;6.90;99.90
7530;DHT22;3806;52.270;10.544;2023-12-22T10:50:50;6.90;99.90
7530;DHT22;3806;52.270;10.544;2023-12-22T10:53:15;7.00;99.90
7530;DHT22;3806;52.270;10.544;2023-12-22T10:55:41;7.00;99.90
7530;DHT22;3806;52.270;10.544;2023-12-22T10:58:06;6.90;99.90
7530;DHT22;3806;52.270;10.544;2023-12-22T11:00:32;6.90;99.90
7530;DHT22;3806;52.270;10.544;2023-12-22T11:03:01;6.90;99.90
7530;DHT22;3806;52.270;10.544;2023-12-22T11:05:29;6.80;99.90
7530;DHT22;3806;52.270;10.544;2023-12-22T11:07:59;6.70;99.90
7530;DHT22;3806;52.270;10.544;2023-12-22T11:10:28;6.60;99.90
7530;DHT22;3806;52.270;10.544;2023-12-22T11:12:57;6.50;99.90
7530;DHT22;3806;52.270;10.544;2023-12-22T11:15:23;6.40;99.90
7530;DHT22;3806;52.270;10.544;2023-12-22T11:17:49;6.20;99.90
7530;DHT22;3806;52.270;10.544;2023-12-22T11:20:18;6.20;99.90
7530;DHT22;3806;52.270;10.544;2023-12-22T11:22:44;6.00;99.90
7530;DHT22;3806;52.270;10.544;2023-12-22T11:25:10;5.90;99.90
7530;DHT22;3806;52.270;10.544;2023-12-22T11:27:37;5.90;99.90
7530;DHT22;3806;52.270;10.544;2023-12-22T11:30:04;5.80;99.90
7530;DHT22;3806;52.270;10.544;2023-12-22T11:32:33;5.80;99.90
7530;DHT22;3806;52.270;10.544;2023-12-22T11:35:00;5.70;99.90
7530;DHT22;3806;52.270;10.544;2023-12-22T11:37:25;5.80;99.90
7530;DHT22;3806;52.270;10.544;2023-12-22T11:39:51;5.80;99.90
7530;DHT22;3806;52.270;10.544;2023-12-22T11:42:21;5.90;99.90
7530;DHT22;3806;52.270;10.544;2023-12-22T11:44:48;6.00;99.90
7530;DHT22;3806;52.270;10.544;2023-12-22T11:47:14;6.00;99.90
7530;DHT22;3806;52.270;10.544;2023-12-22T11:49:40;6.00;99.90
7530;DHT22;3806;52.270;10.544;2023-12-22T11:52:25;6.00;99.90
7530;DHT22;3806;52.270;10.544;2023-12-22T11:54:53;6.00;99.90
7530;DHT22;3806;52.270;10.544;2023-12-22T11:59:58;6.00;99.90
7530;DHT22;3806;52.270;10.544;2023-12-22T12:02:24;6.00;99.90
7530;DHT22;3806;52.270;10.544;2023-12-22T12:04:53;5.90;99.90
7530;DHT22;3806;52.270;10.544;2023-12-22T12:10:08;5.90;99.90
7530;DHT22;3806;52.270;10.544;2023-12-22T12:12:33;5.90;99.90
7530;DHT22;3806;52.270;10.544;2023-12-22T12:15:07;5.80;99.90
7530;DHT22;3806;52.270;10.544;2023-12-22T12:17:33;5.80;99.90
7530;DHT22;3806;52.270;10.544;2023-12-22T12:20:05;5.80;99.90
7530;DHT22;3806;52.270;10.544;2023-12-22T12:22:31;5.80;99.90
7530;DHT22;3806;52.270;10.544;2023-12-22T12:24:56;5.80;99.90
7530;DHT22;3806;52.270;10.544;2023-12-22T12:27:22;5.80;99.90
7530;DHT22;3806;52.270;10.544;2023-12-22T12:29:48;5.80;99.90
7530;DHT22;3806;52.270;10.544;2023-12-22T12:32:14;5.80;99.90
7530;DHT22;3806;52.270;10.544;2023-12-22T12:34:42;5.80;99.90
7530;DHT22;3806;52.270;10.544;2023-12-22T12:37:08;5.90;99.90
7530;DHT22;3806;52.270;10.544;2023-12-22T12:39:35;5.90;99.90
7530;DHT22;3806;52.270;10.544;2023-12-22T12:42:06;5.90;99.90
7530;DHT22;3806;52.270;10.544;2023-12-22T12:44:33;6.00;99.90
7530;DHT22;3806;52.270;10.544;2023-12-22T12:47:11;6.10;99.90
7530;DHT22;3806;52.270;10.544;2023-12-22T12:49:37;6.20;99.90
7530;DHT22;3806;52.270;10.544;2023-12-22T12:52:02;6.20;99.90
7530;DHT22;3806;52.270;10.544;2023-12-22T12:54:28;6.30;99.90
7530;DHT22;3806;52.270;10.544;2023-12-22T12:56:54;6.30;99.90
7530;DHT22;3806;52.270;10.544;2023-12-22T12:59:19;6.20;99.90
7530;DHT22;3806;52.270;10.544;2023-12-22T13:01:46;6.20;99.90
7530;DHT22;3806;52.270;10.544;2023-12-22T13:04:12;6.20;99.90
7530;DHT22;3806;52.270;10.544;2023-12-22T13:06:50;6.20;99.90
7530;DHT22;3806;52.270;10.544;2023-12-22T13:09:17;6.30;99.90
7530;DHT22;3806;52.270;10.544;2023-12-22T13:11:45;6.30;99.90
7530;DHT22;3806;52.270;10.544;2023-12-22T13:14:23;6.30;99.90
7530;DHT22;3806;52.270;10.544;2023-12-22T13:16:51;6.30;99.90
7530;DHT22;3806;52.270;10.544;2023-12-22T13:19:17;6.30;99.90
7530;DHT22;3806;52.270;10.544;2023-12-22T13:21:43;6.30;99.90
7530;DHT22;3806;52.270;10.544;2023-12-22T13:24:13;6.30;99.90
7530;DHT22;3806;52.270;10.544;2023-12-22T13:26:40;6.30;99.90
7530;DHT22;3806;52.270;10.544;2023-12-22T13:29:09;6.30;99.90
7530;DHT22;3806;52.270;10.544;2023-12-22T13:31:41;6.30;99.90
7530;DHT22;3806;52.270;10.544;2023-12-22T13:34:09;6.30;99.90
7530;DHT22;3806;52.270;10.544;2023-12-22T13:36:35;6.30;99.90
7530;DHT22;3806;52.270;10.544;2023-12-22T13:39:08;6.30;99.90
7530;DHT22;3806;52.270;10.544;2023-12-22T13:41:40;6.30;99.90
7530;DHT22;3806;52.270;10.544;2023-12-22T13:44:07;6.30;99.90
7530;DHT22;3806;52.270;10.544;2023-12-22T13:46:33;6.30;99.90
7530;DHT22;3806;52.270;10.544;2023-12-22T13:49:02;6.30;99.90
7530;DHT22;3806;52.270;10.544;2023-12-22T13:51:44;6.30;99.90
7530;DHT22;3806;52.270;10.544;2023-12-22T13:54:11;6.30;99.90
7530;DHT22;3806;52.270;10.544;2023-12-22T13:56:37;6.30;99.90
7530;DHT22;3806;52.270;10.544;2023-12-22T13:59:05;6.30;99.90
7530;DHT22;3806;52.270;10.544;2023-12-22T14:01:31;6.30;99.90
7530;DHT22;3806;52.270;10.544;2023-12-22T14:03:58;6.30;99.90
7530;DHT22;3806;52.270;10.544;2023-12-22T14:06:27;6.30;99.90
7530;DHT22;3806;52.270;10.544;2023-12-22T14:08:53;6.30;99.90
7530;DHT22;3806;52.270;10.544;2023-12-22T14:11:19;6.40;99.90
7530;DHT22;3806;52.270;10.544;2023-12-22T14:13:45;6.40;99.90
7530;DHT22;3806;52.270;10.544;2023-12-22T14:16:10;6.50;99.90
7530;DHT22;3806;52.270;10.544;2023-12-22T14:18:36;6.50;99.90
7530;DHT22;3806;52.270;10.544;2023-12-22T14:21:01;6.50;99.90
7530;DHT22;3806;52.270;10.544;2023-12-22T14:23:29;6.50;99.90
7530;DHT22;3806;52.270;10.544;2023-12-22T14:25:54;6.60;99.90
7530;DHT22;3806;52.270;10.544;2023-12-22T14:28:20;6.60;99.90
7530;DHT22;3806;52.270;10.544;2023-12-22T14:30:46;6.50;99.90
7530;DHT22;3806;52.270;10.544;2023-12-22T14:33:11;6.40;99.90
7530;DHT22;3806;52.270;10.544;2023-12-22T14:35:37;6.40;99.90
7530;DHT22;3806;52.270;10.544;2023-12-22T14:38:02;6.30;99.90
7530;DHT22;3806;52.270;10.544;2023-12-22T14:40:28;6.20;99.90
7530;DHT22;3806;52.270;10.544;2023-12-22T14:42:54;6.10;99.90
7530;DHT22;3806;52.270;10.544;2023-12-22T14:45:19;6.00;99.90
7530;DHT22;3806;52.270;10.544;2023-12-22T14:47:45;6.00;99.90
7530;DHT22;3806;52.270;10.544;2023-12-22T14:50:10;5.90;99.90
7530;DHT22;3806;52.270;10.544;2023-12-22T14:52:36;5.90;99.90
7530;DHT22;3806;52.270;10.544;2023-12-22T14:55:02;5.90;99.90
7530;DHT22;3806;52.270;10.544;2023-12-22T14:57:29;5.90;99.90
7530;DHT22;3806;52.270;10.544;2023-12-22T14:59:55;5.90;99.90
7530;DHT22;3806;52.270;10.544;2023-12-22T15:02:21;5.90;99.90
7530;DHT22;3806;52.270;10.544;2023-12-22T15:04:47;5.90;99.90
7530;DHT22;3806;52.270;10.544;2023-12-22T15:07:17;6.00;99.90
7530;DHT22;3806;52.270;10.544;2023-12-22T15:09:42;6.00;99.90
7530;DHT22;3806;52.270;10.544;2023-12-22T15:12:08;6.00;99.90
7530;DHT22;3806;52.270;10.544;2023-12-22T15:14:34;6.10;99.90
7530;DHT22;3806;52.270;10.544;2023-12-22T15:16:59;6.10;99.90
7530;DHT22;3806;52.270;10.544;2023-12-22T15:19:25;6.20;99.90
7530;DHT22;3806;52.270;10.544;2023-12-22T15:21:51;6.30;99.90
7530;DHT22;3806;52.270;10.544;2023-12-22T15:24:17;6.30;99.90
7530;DHT22;3806;52.270;10.544;2023-12-22T15:26:43;6.40;99.90
7530;DHT22;3806;52.270;10.544;2023-12-22T15:29:09;6.40;99.90
7530;DHT22;3806;52.270;10.544;2023-12-22T15:31:34;6.40;99.90
7530;DHT22;3806;52.270;10.544;2023-12-22T15:34:00;6.30;99.90
7530;DHT22;3806;52.270;10.544;2023-12-22T15:36:25;6.10;99.90
7530;DHT22;3806;52.270;10.544;2023-12-22T15:38:53;5.90;99.90
7530;DHT22;3806;52.270;10.544;2023-12-22T15:41:18;5.70;99.90
7530;DHT22;3806;52.270;10.544;2023-12-22T15:43:44;5.60;99.90
7530;DHT22;3806;52.270;10.544;2023-12-22T15:46:10;5.50;99.90
7530;DHT22;3806;52.270;10.544;2023-12-22T15:48:36;5.50;99.90
7530;DHT22;3806;52.270;10.544;2023-12-22T15:51:09;5.50;99.90
7530;DHT22;3806;52.270;10.544;2023-12-22T15:53:38;5.40;99.90
7530;DHT22;3806;52.270;10.544;2023-12-22T15:56:05;5.40;99.90
7530;DHT22;3806;52.270;10.544;2023-12-22T15:58:31;5.30;99.90
7530;DHT22;3806;52.270;10.544;2023-12-22T16:00:57;5.30;99.90
7530;DHT22;3806;52.270;10.544;2023-12-22T16:03:22;5.30;99.90
7530;DHT22;3806;52.270;10.544;2023-12-22T16:05:48;5.20;99.90
7530;DHT22;3806;52.270;10.544;2023-12-22T16:08:13;5.20;99.90
7530;DHT22;3806;52.270;10.544;2023-12-22T16:10:39;5.20;99.90